Time;durP1;ratioP1;P1;durP2;ratioP2;P2;SDS_P1;SDS_P2;PMS_P1;PMS_P2;Temp;Humidity;BMP_temperature;BMP_pressure;BME280_temperature;BME280_humidity;BME280_pressure;Samples;Min_cycle;Max_cycle;Signal;HPM_P1;HPM_P2
2022/03/25 00:00:42;;;;;;;42.90;22.25;;;4.30;99.90;;;;;;5053350;28;20493;-87
2022/03/25 00:03:25;;;;;;;44.53;21.85;;;4.30;99.90;;;;;;5052912;28;20021;-87
2022/03/25 00:05:50;;;;;;;37.22;20.83;;;4.30;99.90;;;;;;5053130;28;20076;-88
2022/03/25 00:08:16;;;;;;;42.10;19.80;;;4.30;99.90;;;;;;5068490;28;20060;-87
2022/03/25 00:10:44;;;;;;;38.85;20.42;;;4.30;99.90;;;;;;5053035;28;20377;-88
2022/03/25 00:13:10;;;;;;;38.80;20.90;;;4.20;99.90;;;;;;5073027;28;20025;-87
2022/03/25 00:15:42;;;;;;;36.35;19.88;;;4.20;99.90;;;;;;5072994;28;20016;-88
2022/03/25 00:18:07;;;;;;;34.05;19.20;;;4.20;99.90;;;;;;5072836;28;20085;-87
2022/03/25 00:20:33;;;;;;;35.50;18.40;;;4.20;99.90;;;;;;5055051;28;20427;-87
2022/03/25 00:22:58;;;;;;;36.50;19.38;;;4.10;99.90;;;;;;5072609;28;20070;-88
2022/03/25 00:25:34;;;;;;;34.53;19.77;;;4.10;99.90;;;;;;5072871;28;20432;-87
2022/03/25 00:28:00;;;;;;;38.75;19.13;;;4.00;99.90;;;;;;5090688;28;20035;-87
2022/03/25 00:30:26;;;;;;;34.08;19.15;;;4.00;99.90;;;;;;5093169;28;20032;-87
2022/03/25 00:33:01;;;;;;;38.03;19.65;;;3.90;99.90;;;;;;5090162;28;20026;-87
2022/03/25 00:35:27;;;;;;;38.80;19.67;;;4.00;99.90;;;;;;5055049;28;20025;-88
2022/03/25 00:37:52;;;;;;;42.08;19.90;;;4.00;99.90;;;;;;5054821;28;20028;-88
2022/03/25 00:40:38;;;;;;;39.78;18.25;;;3.90;99.90;;;;;;5072906;28;20086;-88
2022/03/25 00:43:06;;;;;;;40.08;18.38;;;3.90;99.90;;;;;;5079870;28;20100;-87
2022/03/25 00:45:32;;;;;;;31.10;16.75;;;3.90;99.90;;;;;;5092976;28;20065;-88
2022/03/25 00:48:25;;;;;;;29.80;16.50;;;3.80;99.90;;;;;;5090643;28;20020;-87
2022/03/25 00:50:50;;;;;;;43.78;18.92;;;3.90;99.90;;;;;;5072806;28;20499;-88
2022/03/25 00:53:16;;;;;;;30.83;16.65;;;3.90;99.90;;;;;;5054001;28;20045;-87
2022/03/25 00:55:41;;;;;;;35.38;17.48;;;3.80;99.90;;;;;;5052735;28;20136;-87
2022/03/25 00:58:30;;;;;;;32.85;16.70;;;3.80;99.90;;;;;;5052573;28;20021;-87
2022/03/25 01:00:56;;;;;;;33.25;15.82;;;3.80;99.90;;;;;;5052359;28;20029;-87
2022/03/25 01:03:21;;;;;;;33.85;16.35;;;3.80;99.90;;;;;;5052377;28;20027;-86
2022/03/25 01:06:18;;;;;;;34.20;16.67;;;3.80;99.90;;;;;;5052610;28;20025;-88
2022/03/25 01:08:44;;;;;;;32.05;16.88;;;3.70;99.90;;;;;;5052502;28;20599;-88
2022/03/25 01:11:10;;;;;;;30.92;15.10;;;3.70;99.90;;;;;;5052579;28;20104;-88
2022/03/25 01:13:38;;;;;;;29.50;16.00;;;3.70;99.90;;;;;;5052353;28;20441;-88
2022/03/25 01:16:05;;;;;;;31.33;16.13;;;3.70;99.90;;;;;;5037402;28;20021;-88
2022/03/25 01:18:31;;;;;;;31.35;15.52;;;3.70;99.90;;;;;;5038616;28;20033;-88
2022/03/25 01:21:21;;;;;;;33.17;16.30;;;3.60;99.90;;;;;;5039127;28;20036;-88
2022/03/25 01:23:48;;;;;;;34.10;16.95;;;3.60;99.90;;;;;;5036362;28;20030;-88
2022/03/25 01:26:13;;;;;;;29.98;15.65;;;3.50;99.90;;;;;;5053667;28;20032;-88
2022/03/25 01:29:04;;;;;;;30.60;15.30;;;3.50;99.90;;;;;;5056038;28;20025;-88
2022/03/25 01:31:30;;;;;;;27.80;13.95;;;3.40;99.90;;;;;;5055769;28;20119;-88
2022/03/25 01:33:56;;;;;;;30.80;15.13;;;3.40;99.90;;;;;;5038161;28;20068;-88
2022/03/25 01:36:39;;;;;;;29.02;14.23;;;3.50;99.90;;;;;;5054855;28;20040;-88
2022/03/25 01:39:05;;;;;;;33.75;16.20;;;3.40;99.90;;;;;;5056040;28;20557;-89
2022/03/25 01:41:37;;;;;;;29.33;14.27;;;3.40;99.90;;;;;;5055957;28;20096;-87
2022/03/25 01:44:04;;;;;;;31.80;14.80;;;3.40;99.90;;;;;;5037731;28;20116;-87
2022/03/25 01:46:30;;;;;;;34.70;16.52;;;3.30;99.90;;;;;;5055469;28;20021;-87
2022/03/25 01:49:22;;;;;;;34.15;15.40;;;3.30;99.90;;;;;;5055565;28;20381;-88
2022/03/25 01:51:53;;;;;;;26.20;14.25;;;3.30;99.90;;;;;;5061880;28;20094;-88
2022/03/25 01:54:24;;;;;;;41.95;16.75;;;3.30;99.90;;;;;;5057667;28;20512;-88
2022/03/25 01:57:10;;;;;;;26.95;14.52;;;3.20;99.90;;;;;;5075758;28;20075;-87
2022/03/25 01:59:35;;;;;;;24.40;13.20;;;3.20;99.90;;;;;;5075495;28;20039;-87
2022/03/25 02:02:07;;;;;;;27.83;13.90;;;3.20;99.90;;;;;;5075177;28;20024;-87
2022/03/25 02:04:34;;;;;;;27.83;14.18;;;3.20;99.90;;;;;;5067233;28;20104;-88
2022/03/25 02:07:00;;;;;;;26.85;13.93;;;3.20;99.90;;;;;;5074040;28;20047;-88
2022/03/25 02:09:26;;;;;;;25.20;14.32;;;3.10;99.90;;;;;;5073978;28;20029;-88
2022/03/25 02:11:52;;;;;;;30.13;14.45;;;3.10;99.90;;;;;;5057556;28;20571;-88
2022/03/25 02:14:18;;;;;;;36.65;14.23;;;3.10;99.90;;;;;;5075291;28;20031;-88
2022/03/25 02:16:54;;;;;;;30.50;14.20;;;3.10;99.90;;;;;;5073800;28;20016;-88
2022/03/25 02:19:20;;;;;;;24.05;13.25;;;3.00;99.90;;;;;;5075253;28;20044;-88
2022/03/25 02:21:47;;;;;;;24.98;14.65;;;3.00;99.90;;;;;;5075181;28;20060;-88
2022/03/25 02:24:22;;;;;;;33.75;13.98;;;3.00;99.90;;;;;;5074939;28;20074;-88
2022/03/25 02:26:48;;;;;;;32.47;16.15;;;3.00;99.90;;;;;;5055855;28;20025;-87
2022/03/25 02:29:17;;;;;;;29.98;14.30;;;3.00;99.90;;;;;;5074975;28;20090;-87
2022/03/25 02:31:43;;;;;;;34.88;15.13;;;3.00;99.90;;;;;;5074377;28;20098;-88
2022/03/25 02:34:10;;;;;;;36.63;17.10;;;3.00;99.90;;;;;;5074329;28;20033;-87
2022/03/25 02:36:46;;;;;;;32.42;15.18;;;2.90;99.90;;;;;;5074797;28;20025;-87
2022/03/25 02:39:14;;;;;;;29.42;14.18;;;2.90;99.90;;;;;;5074912;28;20065;-87
2022/03/25 02:41:40;;;;;;;29.98;15.35;;;2.90;99.90;;;;;;5056657;28;20028;-87
2022/03/25 02:44:18;;;;;;;29.27;13.88;;;2.90;99.90;;;;;;5074456;28;20028;-87
2022/03/25 02:46:44;;;;;;;30.27;15.02;;;2.90;99.90;;;;;;5056374;28;20025;-87
2022/03/25 02:49:11;;;;;;;29.92;15.65;;;2.80;99.90;;;;;;5074550;28;20035;-87
2022/03/25 02:51:46;;;;;;;29.48;15.27;;;2.80;99.90;;;;;;5074386;28;20499;-87
2022/03/25 02:54:12;;;;;;;;;;;2.80;99.90;;;;;;5074913;28;20486;-87
2022/03/25 02:56:38;;;;;;;33.33;14.95;;;2.80;99.90;;;;;;5056385;28;19908;-87
2022/03/25 02:59:22;;;;;;;32.53;15.65;;;2.70;99.90;;;;;;5074217;28;20038;-87
2022/03/25 03:01:48;;;;;;;33.22;16.38;;;2.70;99.90;;;;;;5074019;28;20401;-87
2022/03/25 03:04:13;;;;;;;34.90;16.75;;;2.70;99.90;;;;;;5074268;28;20031;-88
2022/03/25 03:07:08;;;;;;;31.50;16.20;;;2.70;99.90;;;;;;5074309;28;20031;-88
2022/03/25 03:09:34;;;;;;;31.30;15.52;;;2.70;99.90;;;;;;5073971;28;20472;-87
2022/03/25 03:12:03;;;;;;;37.20;17.77;;;2.70;99.90;;;;;;5072783;28;20115;-87
2022/03/25 03:14:29;;;;;;;33.33;15.77;;;2.60;99.90;;;;;;5074168;28;20026;-88
2022/03/25 03:16:54;;;;;;;34.53;17.23;;;2.60;99.90;;;;;;5055899;28;20017;-89
2022/03/25 03:20:07;;;;;;;33.78;15.93;;;2.70;99.90;;;;;;5074158;28;20055;-88
2022/03/25 03:22:33;;;;;;;38.97;17.83;;;2.70;99.90;;;;;;5091583;28;20032;-88
2022/03/25 03:24:59;;;;;;;34.22;16.52;;;2.60;99.90;;;;;;5076124;28;20028;-89
2022/03/25 03:27:44;;;;;;;35.47;16.77;;;2.60;99.90;;;;;;5094069;28;20039;-88
2022/03/25 03:30:11;;;;;;;38.08;16.80;;;2.50;99.90;;;;;;5094182;28;20024;-88
2022/03/25 03:32:37;;;;;;;36.38;17.85;;;2.50;99.90;;;;;;5071408;28;20025;-87
2022/03/25 03:35:19;;;;;;;33.25;16.77;;;2.50;99.90;;;;;;5073619;28;20560;-88
2022/03/25 03:37:46;;;;;;;33.88;17.85;;;2.50;99.90;;;;;;5071859;28;20031;-87
2022/03/25 03:40:17;;;;;;;39.78;19.00;;;2.40;99.90;;;;;;5073644;28;20473;-88
2022/03/25 03:42:56;;;;;;;32.67;16.92;;;2.40;99.90;;;;;;5055582;28;20028;-88
2022/03/25 03:45:21;;;;;;;31.58;15.70;;;2.40;99.90;;;;;;5073234;28;20024;-87
2022/03/25 03:47:48;;;;;;;37.08;18.25;;;2.40;99.90;;;;;;5055165;28;20046;-88
2022/03/25 03:50:20;;;;;;;28.83;14.60;;;2.40;99.90;;;;;;5073438;28;20032;-88
2022/03/25 03:52:58;;;;;;;43.30;19.02;;;2.40;99.90;;;;;;5086187;28;20067;-87
2022/03/25 03:55:24;;;;;;;38.13;17.45;;;2.40;99.90;;;;;;5075473;28;20055;-88
2022/03/25 03:57:49;;;;;;;33.45;17.40;;;2.40;99.90;;;;;;5075495;28;20038;-89
2022/03/25 04:00:32;;;;;;;35.50;16.65;;;2.40;99.90;;;;;;5072578;28;20059;-88
2022/03/25 04:02:58;;;;;;;35.30;16.85;;;2.30;99.90;;;;;;5073333;28;20364;-88
2022/03/25 04:05:44;;;;;;;34.53;17.35;;;2.30;99.90;;;;;;5072946;28;20021;-88
2022/03/25 04:08:09;;;;;;;33.97;16.38;;;2.40;99.90;;;;;;5073202;28;20025;-88
2022/03/25 04:10:48;;;;;;;44.85;18.05;;;2.40;99.90;;;;;;5073252;28;20108;-88
2022/03/25 04:13:14;;;;;;;41.83;19.35;;;2.40;99.90;;;;;;5054976;28;20020;-88
2022/03/25 04:15:39;;;;;;;35.47;17.92;;;2.30;99.90;;;;;;5072738;28;20024;-88
2022/03/25 04:18:23;;;;;;;36.60;19.08;;;2.30;99.90;;;;;;5072989;28;20472;-87
2022/03/25 04:20:50;;;;;;;39.90;17.58;;;2.30;99.90;;;;;;5053012;28;20024;-87
2022/03/25 04:23:16;;;;;;;40.95;18.73;;;2.30;99.90;;;;;;5062056;28;20021;-87
2022/03/25 04:25:43;;;;;;;44.92;21.13;;;2.30;99.90;;;;;;5072941;28;20025;-87
2022/03/25 04:28:09;;;;;;;45.15;19.83;;;2.30;99.90;;;;;;5072675;28;20025;-87
2022/03/25 04:30:37;;;;;;;39.38;19.15;;;2.30;99.90;;;;;;5072521;28;20154;-87
2022/03/25 04:33:04;;;;;;;41.25;18.75;;;2.20;99.90;;;;;;5072485;28;20025;-87
2022/03/25 04:35:53;;;;;;;40.47;17.75;;;2.30;99.90;;;;;;5072874;28;20017;-87
2022/03/25 04:38:18;;;;;;;39.85;19.42;;;2.30;99.90;;;;;;5054643;28;20036;-87
2022/03/25 04:40:44;;;;;;;34.03;17.30;;;2.30;99.90;;;;;;5072482;28;20024;-87
2022/03/25 04:43:19;;;;;;;35.10;17.95;;;2.20;99.90;;;;;;5071301;28;20024;-87
2022/03/25 04:45:45;;;;;;;38.17;19.10;;;2.20;99.90;;;;;;5072145;28;20024;-87
2022/03/25 04:48:18;;;;;;;43.92;19.30;;;2.20;99.90;;;;;;5072462;28;20507;-88
2022/03/25 04:50:44;;;;;;;36.80;17.23;;;2.30;99.90;;;;;;5057325;28;20028;-86
2022/03/25 04:53:10;;;;;;;34.00;18.00;;;2.30;99.90;;;;;;5076194;28;20053;-86
2022/03/25 04:55:42;;;;;;;37.80;17.30;;;2.20;99.90;;;;;;5076717;28;20025;-86
2022/03/25 04:58:08;;;;;;;29.38;15.68;;;2.20;99.90;;;;;;5076653;28;20017;-86
2022/03/25 05:00:37;;;;;;;40.63;16.63;;;2.20;99.90;;;;;;5076259;28;20031;-86
2022/03/25 05:03:03;;;;;;;30.63;15.30;;;2.30;99.90;;;;;;5076411;28;20071;-85
2022/03/25 05:05:55;;;;;;;36.47;15.65;;;2.20;99.90;;;;;;5075146;28;20028;-86
2022/03/25 05:08:21;;;;;;;34.10;16.33;;;2.20;99.90;;;;;;5076464;28;20463;-86
2022/03/25 05:10:46;;;;;;;32.47;16.52;;;2.20;99.90;;;;;;5076115;28;20126;-86
2022/03/25 05:13:47;;;;;;;33.28;16.95;;;2.20;99.90;;;;;;5076428;28;20032;-86
2022/03/25 05:16:13;;;;;;;32.95;15.77;;;2.20;99.90;;;;;;5058003;28;20428;-85
2022/03/25 05:18:39;;;;;;;30.00;14.30;;;2.10;99.90;;;;;;5077053;28;20094;-87
2022/03/25 05:21:27;;;;;;;29.42;15.00;;;2.10;99.90;;;;;;5096297;28;20016;-86
2022/03/25 05:23:53;;;;;;;29.25;14.25;;;2.10;99.90;;;;;;5073161;28;20127;-86
2022/03/25 05:26:20;;;;;;;30.65;14.07;;;2.10;99.90;;;;;;5058180;28;20471;-86
2022/03/25 05:28:49;;;;;;;30.08;14.63;;;2.10;99.90;;;;;;5095819;28;20158;-86
2022/03/25 05:31:15;;;;;;;31.73;15.73;;;2.20;99.90;;;;;;5077789;28;20068;-87
2022/03/25 05:33:40;;;;;;;31.30;14.85;;;2.20;99.90;;;;;;5096033;28;20016;-85
2022/03/25 05:36:13;;;;;;;33.55;15.95;;;2.20;99.90;;;;;;5095768;28;20027;-86
2022/03/25 05:38:39;;;;;;;30.98;14.85;;;2.20;99.90;;;;;;5096146;28;20103;-85
2022/03/25 05:41:10;;;;;;;29.33;13.95;;;2.20;99.90;;;;;;5095534;28;20145;-85
2022/03/25 05:43:36;;;;;;;42.33;18.30;;;2.20;99.90;;;;;;5095661;28;20020;-86
2022/03/25 05:46:03;;;;;;;32.22;13.95;;;2.30;99.90;;;;;;5095426;28;20517;-86
2022/03/25 05:48:29;;;;;;;26.60;14.57;;;2.30;99.90;;;;;;5095464;28;20020;-86
2022/03/25 05:50:55;;;;;;;32.25;15.27;;;2.30;99.90;;;;;;5095870;28;20020;-86
2022/03/25 05:53:20;;;;;;;31.58;14.60;;;2.30;99.90;;;;;;5058914;28;20064;-86
2022/03/25 05:55:53;;;;;;;27.60;13.45;;;2.30;99.90;;;;;;5055333;28;20512;-86
2022/03/25 05:58:19;;;;;;;27.27;12.55;;;2.40;99.90;;;;;;5037658;28;20029;-86
2022/03/25 06:00:44;;;;;;;29.50;14.93;;;2.30;99.90;;;;;;5037571;28;20029;-85
2022/03/25 06:03:10;;;;;;;25.17;13.40;;;2.40;99.90;;;;;;5063436;28;20029;-87
2022/03/25 06:05:41;;;;;;;24.30;12.07;;;2.40;99.90;;;;;;5073155;28;20389;-86
2022/03/25 06:08:07;;;;;;;29.73;13.02;;;2.50;99.90;;;;;;5072733;28;20056;-86
2022/03/25 06:10:34;;;;;;;28.70;14.85;;;2.50;99.90;;;;;;5073530;28;20059;-86
2022/03/25 06:13:00;;;;;;;27.65;13.50;;;2.50;99.90;;;;;;5055837;28;20456;-86
2022/03/25 06:15:26;;;;;;;28.13;14.43;;;2.70;99.90;;;;;;5059417;28;20055;-86
2022/03/25 06:17:51;;;;;;;24.17;13.02;;;2.70;99.90;;;;;;5074717;28;20439;-86
2022/03/25 06:20:19;;;;;;;34.97;14.48;;;2.80;99.90;;;;;;5056563;28;20024;-86
2022/03/25 06:22:51;;;;;;;32.85;15.88;;;2.90;99.90;;;;;;5056619;28;20025;-86
2022/03/25 06:25:18;;;;;;;30.92;14.70;;;2.80;99.90;;;;;;5054637;28;20100;-87
2022/03/25 06:28:02;;;;;;;29.88;14.88;;;2.90;99.90;;;;;;5054484;28;20061;-87
2022/03/25 06:31:00;;;;;;;27.73;13.90;;;3.00;99.90;;;;;;5054298;28;20063;-85
2022/03/25 06:33:25;;;;;;;31.25;14.35;;;3.10;99.90;;;;;;5052803;28;20428;-87
2022/03/25 06:35:52;;;;;;;33.72;16.02;;;3.10;99.90;;;;;;5036800;28;20028;-86
2022/03/25 06:38:18;;;;;;;35.97;14.95;;;3.20;99.90;;;;;;5054595;28;20096;-87
2022/03/25 06:40:45;;;;;;;33.75;14.82;;;3.30;99.90;;;;;;5054455;28;20473;-87
2022/03/25 06:43:10;;;;;;;28.30;13.95;;;3.40;99.90;;;;;;5054436;28;20025;-87
2022/03/25 06:45:39;;;;;;;29.02;14.38;;;3.50;99.90;;;;;;5054446;28;20087;-87
2022/03/25 06:48:05;;;;;;;29.20;13.70;;;3.70;99.90;;;;;;5019972;28;20384;-87
2022/03/25 06:50:38;;;;;;;26.27;12.98;;;3.80;99.90;;;;;;5053276;28;20025;-87
2022/03/25 06:53:04;;;;;;;27.30;13.35;;;4.00;99.90;;;;;;5085216;28;20499;-87
2022/03/25 06:55:30;;;;;;;29.98;14.30;;;4.10;99.90;;;;;;5076532;28;20020;-87
2022/03/25 06:57:58;;;;;;;34.47;15.18;;;4.20;99.90;;;;;;5094508;28;20028;-87
2022/03/25 07:00:24;;;;;;;34.78;12.90;;;4.30;99.90;;;;;;5094012;28;20023;-87
2022/03/25 07:03:18;;;;;;;26.13;13.40;;;4.40;99.90;;;;;;5094461;28;20473;-87
2022/03/25 07:05:43;;;;;;;29.65;13.82;;;4.60;99.90;;;;;;5094250;28;20551;-87
2022/03/25 07:08:22;;;;;;;36.53;14.32;;;4.70;99.90;;;;;;5076097;28;20107;-87
2022/03/25 07:10:48;;;;;;;32.58;13.98;;;4.80;99.90;;;;;;5076398;28;20031;-87
2022/03/25 07:13:16;;;;;;;40.28;16.33;;;5.00;99.90;;;;;;5075404;28;20515;-87
2022/03/25 07:15:41;;;;;;;40.95;15.95;;;5.10;99.90;;;;;;5093821;28;20047;-86
2022/03/25 07:18:09;;;;;;;49.13;17.75;;;5.30;99.90;;;;;;5094177;28;20059;-87
2022/03/25 07:20:35;;;;;;;43.28;17.02;;;5.50;99.90;;;;;;5094098;28;20035;-87
2022/03/25 07:23:07;;;;;;;37.70;16.00;;;5.80;99.90;;;;;;5093913;28;20028;-87
2022/03/25 07:25:33;;;;;;;39.40;15.70;;;6.00;99.90;;;;;;5093990;28;20073;-87
2022/03/25 07:28:08;;;;;;;34.45;15.85;;;6.20;99.90;;;;;;5092632;28;20493;-87
2022/03/25 07:30:34;;;;;;;34.37;15.50;;;6.30;99.90;;;;;;5093703;28;20030;-87
2022/03/25 07:33:01;;;;;;;45.42;17.20;;;6.40;99.90;;;;;;5093769;28;20091;-87
2022/03/25 07:35:27;;;;;;;41.53;17.77;;;6.50;99.90;;;;;;5093816;28;20027;-87
2022/03/25 07:37:59;;;;;;;40.60;18.10;;;6.60;99.90;;;;;;5093692;28;20055;-87
2022/03/25 07:40:24;;;;;;;37.42;16.45;;;6.60;99.90;;;;;;5093507;28;20032;-87
2022/03/25 07:42:51;;;;;;;41.33;16.83;;;6.70;99.90;;;;;;5075508;28;20540;-87
2022/03/25 07:45:16;;;;;;;40.05;17.85;;;6.70;99.90;;;;;;5093332;28;20066;-87
2022/03/25 07:47:54;;;;;;;46.08;19.17;;;6.80;99.90;;;;;;5093304;28;20480;-88
2022/03/25 07:50:22;;;;;;;39.90;17.90;;;6.90;99.90;;;;;;5093648;28;20436;-88
2022/03/25 07:52:49;;;;;;;39.00;16.25;;;6.90;99.90;;;;;;5068919;28;20049;-87
2022/03/25 07:55:18;;;;;;;51.20;19.17;;;7.00;99.90;;;;;;5053196;28;20032;-88
2022/03/25 07:57:44;;;;;;;36.78;16.08;;;7.10;99.90;;;;;;5053156;28;20028;-88
2022/03/25 08:00:11;;;;;;;35.17;16.55;;;7.40;99.90;;;;;;5035059;28;20025;-88
2022/03/25 08:02:48;;;;;;;46.88;19.95;;;7.60;99.90;;;;;;5035362;28;20025;-87
2022/03/25 08:05:34;;;;;;;47.92;17.38;;;7.80;99.90;;;;;;5053007;28;20116;-87
2022/03/25 08:08:02;;;;;;;;;;;8.00;99.90;;;;;;5035584;28;20036;-88
2022/03/25 08:11:03;;;;;;;42.53;16.48;;;8.20;99.00;;;;;;5051689;28;19943;-87
2022/03/25 08:13:28;;;;;;;42.58;17.17;;;8.30;96.60;;;;;;5053016;28;20388;-87
2022/03/25 08:15:56;;;;;;;44.72;18.48;;;8.40;92.20;;;;;;5052620;28;20025;-87
2022/03/25 08:18:22;;;;;;;45.53;16.95;;;8.50;91.40;;;;;;5052776;28;20441;-88
2022/03/25 08:20:48;;;;;;;47.78;18.85;;;8.60;92.60;;;;;;5052861;28;20108;-88
2022/03/25 08:29:43;;;;;;;43.70;17.88;;;8.70;93.90;;;;;;5052251;28;20155;-87
2022/03/25 08:32:11;;;;;;;43.50;16.48;;;8.80;86.70;;;;;;5052686;28;20069;-88
2022/03/25 08:34:37;;;;;;;44.15;18.25;;;8.80;91.60;;;;;;5034922;28;20053;-87
2022/03/25 08:37:34;;;;;;;40.05;17.77;;;8.90;93.80;;;;;;5034972;28;20059;-87
2022/03/25 08:39:59;;;;;;;43.78;16.48;;;8.90;95.70;;;;;;5052559;28;20029;-87
2022/03/25 08:42:31;;;;;;;40.90;16.42;;;9.00;95.10;;;;;;5052394;28;20029;-88
2022/03/25 08:44:57;;;;;;;38.22;18.35;;;9.00;94.10;;;;;;5052469;28;20131;-88
2022/03/25 08:47:22;;;;;;;48.33;18.35;;;9.00;91.60;;;;;;5034432;28;20061;-86
2022/03/25 08:49:48;;;;;;;46.30;19.17;;;9.00;91.50;;;;;;5052460;28;20156;-87
2022/03/25 08:52:14;;;;;;;38.88;17.77;;;9.00;94.50;;;;;;5053263;28;20045;-87
2022/03/25 08:54:40;;;;;;;46.67;19.27;;;9.00;94.20;;;;;;5052549;28;20476;-88
2022/03/25 08:57:06;;;;;;;39.45;18.30;;;9.00;92.50;;;;;;5052321;28;20029;-87
2022/03/25 08:59:52;;;;;;;43.25;18.05;;;9.10;91.70;;;;;;5052066;28;20021;-87
2022/03/25 09:02:17;;;;;;;53.33;19.45;;;9.10;94.10;;;;;;5052351;28;20056;-87
2022/03/25 09:04:46;;;;;;;47.78;19.83;;;9.20;96.10;;;;;;5057940;28;20110;-87
2022/03/25 09:07:12;;;;;;;42.58;19.63;;;9.30;91.80;;;;;;5071875;28;20163;-88
2022/03/25 09:09:41;;;;;;;43.13;17.88;;;9.40;90.80;;;;;;5052001;28;20400;-88
2022/03/25 09:12:08;;;;;;;44.78;18.63;;;9.40;90.90;;;;;;5039507;28;20017;-87
2022/03/25 09:14:39;;;;;;;49.33;20.77;;;9.50;92.50;;;;;;5071716;28;20029;-87
2022/03/25 09:17:05;;;;;;;42.03;19.58;;;9.60;92.70;;;;;;5072125;28;20025;-88
2022/03/25 09:19:45;;;;;;;46.50;19.17;;;9.60;92.50;;;;;;5072242;28;20031;-87
2022/03/25 09:22:10;;;;;;;52.10;22.92;;;9.70;91.40;;;;;;5052108;28;20477;-87
2022/03/25 09:24:49;;;;;;;58.35;22.50;;;9.80;88.10;;;;;;5034270;28;20040;-87
2022/03/25 09:27:15;;;;;;;53.00;23.50;;;9.90;90.60;;;;;;5052151;28;20417;-86
2022/03/25 09:29:46;;;;;;;57.95;21.45;;;10.00;92.10;;;;;;5051737;28;20099;-86
2022/03/25 09:32:12;;;;;;;52.03;22.40;;;10.00;92.10;;;;;;5052257;28;20139;-88
2022/03/25 09:37:34;;;;;;;60.72;24.40;;;10.10;93.00;;;;;;5055575;28;20216;-87
2022/03/25 09:40:00;;;;;;;54.53;23.13;;;10.30;93.60;;;;;;5055957;28;20078;-87
2022/03/25 09:42:36;;;;;;;50.15;24.20;;;10.40;93.30;;;;;;5055738;28;20402;-89
2022/03/25 09:45:04;;;;;;;57.03;23.77;;;10.40;93.20;;;;;;5054176;28;20029;-88
2022/03/25 09:47:38;;;;;;;55.35;23.15;;;10.40;91.90;;;;;;5055719;28;20029;-88
2022/03/25 09:50:05;;;;;;;48.15;23.20;;;10.40;91.20;;;;;;5055530;28;20108;-87
2022/03/25 09:52:38;;;;;;;48.08;21.38;;;10.50;92.40;;;;;;5040402;28;20045;-88
2022/03/25 09:55:04;;;;;;;51.20;23.20;;;10.50;91.80;;;;;;5055585;28;20409;-89
2022/03/25 09:57:31;;;;;;;47.10;21.73;;;10.60;90.80;;;;;;5054693;28;20028;-89
2022/03/25 10:00:05;;;;;;;60.33;25.75;;;10.70;92.30;;;;;;5055145;28;20036;-88
2022/03/25 10:02:31;;;;;;;59.53;24.58;;;10.70;90.40;;;;;;5037367;28;20025;-89
2022/03/25 10:04:57;;;;;;;52.05;23.88;;;10.80;91.30;;;;;;5037311;28;20366;-89
2022/03/25 10:07:49;;;;;;;46.13;23.48;;;10.90;91.40;;;;;;5055434;28;20031;-90
2022/03/25 10:10:20;;;;;;;52.03;19.83;;;10.90;85.90;;;;;;5055356;28;20481;-88
2022/03/25 10:12:51;;;;;;;48.75;21.65;;;11.00;77.50;;;;;;5053892;28;20098;-88
2022/03/25 10:15:31;;;;;;;39.33;19.40;;;11.10;75.40;;;;;;5037107;28;20029;-88
2022/03/25 10:18:04;;;;;;;36.95;18.77;;;11.20;72.10;;;;;;5055226;28;20025;-87
2022/03/25 10:20:36;;;;;;;49.97;22.25;;;11.20;71.30;;;;;;5055177;28;20021;-88
2022/03/25 10:23:14;;;;;;;52.08;21.35;;;11.30;71.40;;;;;;5054869;28;20500;-87
2022/03/25 10:26:00;;;;;;;40.05;20.55;;;11.30;69.60;;;;;;5053996;28;20492;-88
2022/03/25 10:28:39;;;;;;;46.03;20.08;;;11.40;64.80;;;;;;5054847;28;20021;-89
2022/03/25 10:31:08;;;;;;;48.25;22.77;;;11.40;62.30;;;;;;5053501;28;20017;-89
2022/03/25 10:33:57;;;;;;;47.83;19.55;;;11.40;60.10;;;;;;5037110;28;20385;-89
2022/03/25 10:36:25;;;;;;;49.83;21.85;;;11.60;59.40;;;;;;5054719;28;20025;-88
2022/03/25 10:39:33;;;;;;;35.65;18.23;;;11.60;58.30;;;;;;5053514;28;20080;-88
2022/03/25 10:42:05;;;;;;;44.03;19.65;;;11.70;58.80;;;;;;5053510;28;20393;-87
2022/03/25 10:44:42;;;;;;;48.92;19.50;;;11.70;58.20;;;;;;5036624;28;20437;-88
2022/03/25 10:47:17;;;;;;;53.65;19.60;;;11.70;57.50;;;;;;5035672;28;20119;-88
2022/03/25 10:49:48;;;;;;;45.42;19.00;;;11.80;56.30;;;;;;5053157;28;20393;-89
2022/03/25 10:52:31;;;;;;;44.63;19.98;;;11.80;56.30;;;;;;5036461;28;20029;-89
2022/03/25 10:55:23;;;;;;;48.42;20.80;;;11.90;57.10;;;;;;5056327;28;20543;-88
2022/03/25 10:58:00;;;;;;;51.50;20.35;;;12.00;55.80;;;;;;5072824;28;20031;-88
2022/03/25 11:00:27;;;;;;;49.28;21.10;;;12.10;55.70;;;;;;5073962;28;20020;-87
2022/03/25 11:02:57;;;;;;;54.58;23.23;;;12.20;54.00;;;;;;5056129;28;20032;-87
2022/03/25 11:05:25;;;;;;;47.28;20.20;;;12.20;53.10;;;;;;5075335;28;20028;-87
2022/03/25 11:08:17;;;;;;;40.25;18.88;;;12.30;55.10;;;;;;5093017;28;20035;-86
2022/03/25 11:10:43;;;;;;;44.67;18.55;;;12.30;55.40;;;;;;5094280;28;20108;-88
2022/03/25 11:13:31;;;;;;;44.03;20.58;;;12.30;55.50;;;;;;5094128;28;20020;-87
2022/03/25 11:15:59;;;;;;;47.33;20.63;;;12.40;54.90;;;;;;5093645;28;20050;-87
2022/03/25 11:18:44;;;;;;;44.55;20.10;;;12.40;56.40;;;;;;5094080;28;20478;-88
2022/03/25 11:21:12;;;;;;;45.28;21.33;;;12.70;56.60;;;;;;5073984;28;20051;-88
2022/03/25 11:24:20;;;;;;;44.83;19.60;;;12.80;54.70;;;;;;5073621;28;20504;-88
2022/03/25 11:26:48;;;;;;;43.60;20.85;;;12.90;53.90;;;;;;5082220;28;20107;-87
2022/03/25 11:29:27;;;;;;;44.20;21.42;;;12.90;54.40;;;;;;5092507;28;20532;-87
2022/03/25 11:32:21;;;;;;;54.20;22.00;;;12.90;54.80;;;;;;5093798;28;20085;-87
2022/03/25 11:34:56;;;;;;;48.63;21.02;;;13.00;57.00;;;;;;5092777;28;20472;-90
2022/03/25 11:37:32;;;;;;;49.75;24.73;;;13.00;57.80;;;;;;5075790;28;20032;-88
2022/03/25 11:40:13;;;;;;;46.70;23.23;;;13.00;60.90;;;;;;5103351;28;20027;-90
2022/03/25 11:42:44;;;;;;;49.72;23.40;;;13.10;60.80;;;;;;5113084;28;20080;-88
2022/03/25 11:45:32;;;;;;;56.40;26.15;;;13.10;58.40;;;;;;5095775;28;20019;-89
2022/03/25 11:48:04;;;;;;;55.30;25.42;;;13.10;58.70;;;;;;5098911;28;20073;-88
2022/03/25 11:50:41;;;;;;;43.03;23.30;;;13.10;58.20;;;;;;5094231;28;20426;-88
2022/03/25 11:53:13;;;;;;;54.17;26.02;;;13.20;58.80;;;;;;5091528;28;20040;-88
2022/03/25 11:56:01;;;;;;;49.15;27.48;;;13.30;59.70;;;;;;5090701;28;20474;-87
2022/03/25 11:58:31;;;;;;;49.75;24.92;;;13.50;59.50;;;;;;5076018;28;20040;-87
2022/03/25 12:01:17;;;;;;;56.22;26.60;;;13.60;60.00;;;;;;5074653;28;20483;-86
2022/03/25 12:03:49;;;;;;;62.78;26.42;;;13.50;59.50;;;;;;5105441;28;20031;-89
2022/03/25 12:06:29;;;;;;;53.47;26.23;;;13.50;59.30;;;;;;5113962;28;20085;-87
2022/03/25 12:08:59;;;;;;;54.08;26.30;;;13.50;58.80;;;;;;5095694;28;20494;-88
2022/03/25 12:15:17;;;;;;;60.22;27.40;;;13.60;59.90;;;;;;5072975;28;20054;-88
2022/03/25 12:17:42;;;;;;;44.93;25.97;;;13.70;59.60;;;;;;5073166;28;20460;-90
2022/03/25 12:20:13;;;;;;;49.08;27.30;;;13.60;59.80;;;;;;5071492;28;20291;-88
2022/03/25 12:22:39;;;;;;;60.40;30.45;;;13.70;62.80;;;;;;5071545;28;20024;-88
2022/03/25 12:25:17;;;;;;;57.33;29.15;;;13.80;61.30;;;;;;5072862;28;20365;-87
2022/03/25 12:27:43;;;;;;;45.60;26.30;;;14.00;61.50;;;;;;5078984;28;20044;-87
2022/03/25 12:30:10;;;;;;;60.42;28.08;;;14.00;62.30;;;;;;5092452;28;20094;-87
2022/03/25 12:32:38;;;;;;;57.92;31.05;;;13.90;62.60;;;;;;5083188;28;20028;-88
2022/03/25 12:35:11;;;;;;;53.10;29.25;;;14.00;64.80;;;;;;5093009;28;20016;-88
2022/03/25 12:38:06;;;;;;;53.78;30.30;;;14.10;66.10;;;;;;5093028;28;20043;-88
2022/03/25 12:40:34;;;;;;;60.50;32.20;;;14.10;67.00;;;;;;5093083;28;20245;-89
2022/03/25 12:43:11;;;;;;;57.17;29.77;;;14.20;66.10;;;;;;5091664;28;20672;-88
2022/03/25 12:45:44;;;;;;;59.15;30.25;;;14.30;70.80;;;;;;5091327;28;20476;-88
2022/03/25 12:48:19;;;;;;;54.15;31.45;;;14.40;69.60;;;;;;5092786;28;20016;-89
2022/03/25 12:50:47;;;;;;;53.20;30.35;;;14.40;65.60;;;;;;5092690;28;20020;-88
2022/03/25 12:53:14;;;;;;;56.33;30.23;;;14.40;62.90;;;;;;5091550;28;20051;-88
2022/03/25 12:55:47;;;;;;;53.58;29.65;;;14.40;61.50;;;;;;5092779;28;20077;-87
2022/03/25 12:58:14;;;;;;;56.17;31.65;;;14.50;62.00;;;;;;5092738;28;20533;-87
2022/03/25 13:01:03;;;;;;;60.00;31.30;;;14.50;61.90;;;;;;5092422;28;20073;-89
2022/03/25 13:06:37;;;;;;;60.90;30.60;;;14.60;65.00;;;;;;5092559;28;20071;-88
2022/03/25 13:09:13;;;;;;;55.33;30.30;;;14.60;61.30;;;;;;5073761;28;20388;-88
2022/03/25 13:12:02;;;;;;;60.40;31.80;;;14.70;62.10;;;;;;5095235;28;20030;-88
2022/03/25 13:14:56;;;;;;;49.40;28.77;;;14.70;62.70;;;;;;5094636;28;20139;-88